Time;durP1;ratioP1;P1;durP2;ratioP2;P2;SDS_P1;SDS_P2;PMS_P1;PMS_P2;Temp;Humidity;BMP_temperature;BMP_pressure;BME280_temperature;BME280_humidity;BME280_pressure;Samples;Min_cycle;Max_cycle;Signal;HPM_P1;HPM_P2
2022/04/11 00:03:36;;;;;;;4.68;2.40;;;;;;;2.52;89.73;100225.06;12186162;19;20010;-82
2022/04/11 00:07:38;;;;;;;6.28;2.63;;;;;;;2.54;90.15;100228.44;12208366;19;20017;-82
2022/04/11 00:11:40;;;;;;;7.93;3.25;;;;;;;2.58;90.25;100223.47;12208796;19;20078;-82
2022/04/11 00:15:41;;;;;;;9.40;2.65;;;;;;;2.63;90.16;100219.16;12183745;19;20014;-82
2022/04/11 00:19:43;;;;;;;7.28;2.38;;;;;;;2.71;90.52;100212.78;12204009;19;20010;-82
2022/04/11 00:23:45;;;;;;;6.78;2.33;;;;;;;2.76;90.51;100213.03;12203123;19;20091;-82
2022/04/11 00:27:47;;;;;;;9.82;3.53;;;;;;;2.81;90.56;100212.47;12179202;19;20043;-81
2022/04/11 00:31:48;;;;;;;5.80;2.88;;;;;;;2.85;90.61;100209.16;12206039;19;20022;-82
2022/04/11 00:35:58;;;;;;;5.78;2.90;;;;;;;2.88;90.63;100210.69;12200271;19;20003;-82
2022/04/11 00:58:47;;;;;;;6.85;3.00;;;;;;;2.85;91.18;100192.00;12233518;19;20007;-81
2022/04/11 01:02:49;;;;;;;6.68;3.20;;;;;;;2.87;91.32;100200.84;12235871;19;20612;-81
2022/04/11 01:06:51;;;;;;;6.93;3.00;;;;;;;2.93;91.30;100191.91;12215305;19;20018;-81
2022/04/11 01:10:54;;;;;;;6.77;3.50;;;;;;;2.99;91.44;100184.84;12231098;19;20003;-81
2022/04/11 01:15:01;;;;;;;6.50;2.85;;;;;;;3.05;91.49;100187.66;12224334;19;20010;-81
2022/04/11 01:19:39;;;;;;;7.88;2.90;;;;;;;3.15;91.21;100190.06;12175097;19;20472;-81
2022/04/11 01:24:20;;;;;;;6.00;3.20;;;;;;;3.24;91.21;100180.72;12203401;19;20018;-81
2022/04/11 01:28:24;;;;;;;9.88;3.15;;;;;;;3.32;91.09;100183.34;12187863;19;20377;-81
2022/04/11 01:37:37;;;;;;;5.05;2.88;;;;;;;3.44;91.20;100186.38;12171279;19;20527;-81
2022/04/11 01:51:50;;;;;;;;;;;;;;;;;;;;;
2022/04/11 01:56:24;;;;;;;6.75;3.10;;;;;;;3.46;91.82;100181.59;12168641;19;20117;-82
2022/04/11 02:00:53;;;;;;;6.88;2.92;;;;;;;3.49;91.62;100174.91;12196008;19;20007;-80
2022/04/11 02:10:42;;;;;;;6.25;2.90;;;;;;;3.56;91.08;100165.75;12195021;19;20024;-81
2022/04/11 02:28:43;;;;;;;13.02;3.40;;;;;;;3.71;91.59;100162.13;12203458;19;20037;-82
2022/04/11 02:32:46;;;;;;;7.32;3.22;;;;;;;3.71;91.57;100153.94;12197060;19;20038;-82
2022/04/11 02:36:47;;;;;;;6.15;2.88;;;;;;;3.71;91.67;100145.75;12176161;19;20016;-81
2022/04/11 02:40:49;;;;;;;8.65;3.47;;;;;;;3.73;91.56;100149.13;12201073;19;20011;-82
2022/04/11 02:44:55;;;;;;;10.15;3.45;;;;;;;3.76;91.60;100146.03;12193385;19;20020;-81
2022/04/11 02:48:56;;;;;;;7.95;4.00;;;;;;;3.79;91.71;100153.81;12179727;19;20009;-82
2022/04/11 02:53:03;;;;;;;8.13;3.92;;;;;;;3.81;91.52;100140.81;12199213;19;20007;-81
2022/04/11 02:57:05;;;;;;;9.07;4.07;;;;;;;3.81;91.63;100127.19;12201379;19;20010;-81
2022/04/11 03:01:08;;;;;;;7.13;3.78;;;;;;;3.80;91.40;100133.66;12176207;19;20017;-82
2022/04/11 03:05:11;;;;;;;13.30;4.45;;;;;;;3.77;91.58;100136.78;12203696;19;20011;-81
2022/04/11 03:09:15;;;;;;;12.05;4.55;;;;;;;3.73;91.72;100128.19;12200417;19;20009;-82
2022/04/11 03:13:17;;;;;;;7.15;4.13;;;;;;;3.69;91.93;100126.91;12180931;19;20493;-82
2022/04/11 03:17:19;;;;;;;9.38;4.75;;;;;;;3.65;91.95;100129.16;12214853;19;20007;-82
2022/04/11 03:21:21;;;;;;;11.90;4.88;;;;;;;3.61;91.99;100119.69;12211962;19;20493;-82
2022/04/11 03:25:34;;;;;;;9.65;4.35;;;;;;;3.57;92.07;100129.31;12187903;19;20456;-82
2022/04/11 03:29:36;;;;;;;16.45;6.30;;;;;;;3.54;92.59;100131.56;12209030;19;20014;-82
2022/04/11 03:33:37;;;;;;;10.45;6.88;;;;;;;3.49;92.60;100120.44;12185850;19;20007;-83
2022/04/11 03:37:39;;;;;;;13.75;7.68;;;;;;;3.46;92.83;100121.66;12207558;19;20028;-82
2022/04/11 03:41:53;;;;;;;13.30;7.20;;;;;;;3.41;93.08;100122.22;12214806;19;20007;-82
2022/04/11 03:46:01;;;;;;;12.52;7.15;;;;;;;3.38;93.64;100114.44;12193620;19;20503;-83
2022/04/11 03:50:04;;;;;;;14.38;7.55;;;;;;;3.33;93.36;100118.78;12208644;19;20011;-82
2022/04/11 03:54:10;;;;;;;13.13;7.22;;;;;;;3.27;93.55;100115.00;12214720;19;20010;-82
2022/04/11 03:58:12;;;;;;;13.25;7.50;;;;;;;3.22;93.74;100105.72;12218462;19;20069;-82
2022/04/11 04:02:17;;;;;;;13.50;7.78;;;;;;;3.20;93.88;100106.75;12220145;19;20062;-83
2022/04/11 04:06:23;;;;;;;16.35;7.45;;;;;;;3.16;93.95;100099.19;12217860;19;20419;-82
2022/04/11 04:10:26;;;;;;;10.07;6.40;;;;;;;3.09;94.06;100093.63;12188522;19;20128;-82
2022/04/11 04:14:29;;;;;;;9.50;5.20;;;;;;;3.02;94.53;100094.63;12219635;19;20018;-81
2022/04/11 04:18:31;;;;;;;12.52;4.20;;;;;;;2.93;94.69;100092.03;12198456;19;20011;-81
2022/04/11 04:22:35;;;;;;;7.00;3.85;;;;;;;2.84;94.82;100104.06;12223384;19;20043;-81
2022/04/11 04:26:38;;;;;;;6.78;3.80;;;;;;;2.72;94.52;100092.84;12211008;19;20078;-79
2022/04/11 04:30:45;;;;;;;7.18;3.65;;;;;;;2.66;94.40;100088.16;12198077;19;20062;-80
2022/04/11 04:34:47;;;;;;;6.45;2.13;;;;;;;2.59;94.26;100081.81;12206213;19;20018;-81
2022/04/11 04:38:49;;;;;;;7.40;2.33;;;;;;;2.54;93.78;100081.53;12208136;19;20110;-81
2022/04/11 04:42:51;;;;;;;12.18;2.75;;;;;;;2.53;93.25;100082.59;12192457;19;20010;-81
2022/04/11 04:46:55;;;;;;;5.35;2.75;;;;;;;2.48;93.16;100082.31;12216675;19;20420;-82
2022/04/11 04:51:02;;;;;;;5.50;2.00;;;;;;;2.45;93.12;100079.97;12217260;19;20027;-81
2022/04/11 04:55:08;;;;;;;3.70;1.98;;;;;;;2.44;92.93;100081.84;12184484;19;20837;-82
2022/04/11 04:59:10;;;;;;;4.43;2.53;;;;;;;2.43;93.01;100076.59;12224030;19;20574;-82
2022/04/11 05:03:12;;;;;;;5.45;2.78;;;;;;;2.43;92.99;100073.88;12210497;19;20011;-80
2022/04/11 05:07:16;;;;;;;6.20;2.58;;;;;;;2.41;92.97;100075.94;12185174;19;20010;-80
2022/04/11 05:11:20;;;;;;;;;;;;;;;2.39;93.28;100070.69;12204902;19;20011;-82
2022/04/11 05:15:23;;;;;;;5.30;2.33;;;;;;;2.39;92.87;100075.28;12212990;19;19968;-81
2022/04/11 05:19:35;;;;;;;6.60;2.70;;;;;;;2.39;92.90;100078.00;12191540;19;20402;-81
2022/04/11 05:23:38;;;;;;;6.05;2.20;;;;;;;2.37;93.34;100080.91;12213595;19;20014;-81
2022/04/11 05:27:40;;;;;;;5.60;3.00;;;;;;;2.40;93.20;100083.25;12194707;19;20014;-80
2022/04/11 05:31:44;;;;;;;6.32;2.75;;;;;;;2.45;92.81;100082.69;12210039;19;20478;-80
2022/04/11 05:35:47;;;;;;;5.03;2.77;;;;;;;2.50;92.66;100086.53;12203186;19;20516;-80
2022/04/11 05:39:49;;;;;;;4.55;2.67;;;;;;;2.57;92.19;100086.59;12189350;19;20224;-81
2022/04/11 05:43:54;;;;;;;6.20;2.30;;;;;;;2.64;91.88;100090.22;12207229;19;20515;-81
2022/04/11 05:48:01;;;;;;;6.32;2.65;;;;;;;2.71;91.78;100093.06;12205748;19;20011;-80
2022/04/11 05:52:04;;;;;;;5.07;2.50;;;;;;;2.78;91.83;100098.56;12183871;19;20010;-80
2022/04/11 05:56:05;;;;;;;6.78;2.72;;;;;;;2.84;91.69;100093.19;12200867;19;20015;-82
2022/04/11 06:00:08;;;;;;;7.60;4.68;;;;;;;2.86;91.79;100101.16;12200370;19;20006;-81
2022/04/11 06:04:13;;;;;;;10.80;5.60;;;;;;;2.87;91.99;100097.41;12178225;19;20014;-82
2022/04/11 06:08:19;;;;;;;21.15;9.38;;;;;;;2.89;91.95;100107.06;12201634;19;20011;-82
2022/04/11 06:12:22;;;;;;;15.27;6.93;;;;;;;2.94;92.31;100106.47;12204386;19;20006;-81
2022/04/11 06:16:25;;;;;;;16.92;6.90;;;;;;;3.01;92.53;100110.13;12178225;19;20391;-82
2022/04/11 06:20:27;;;;;;;7.65;3.10;;;;;;;3.05;92.81;100105.97;12207163;19;20007;-83
2022/04/11 06:24:29;;;;;;;5.33;2.37;;;;;;;3.12;92.70;100103.31;12180909;19;20002;-81
2022/04/11 06:28:34;;;;;;;5.05;2.45;;;;;;;3.25;92.76;100105.34;12190963;19;20251;-82
2022/04/11 06:32:40;;;;;;;5.50;3.00;;;;;;;3.34;92.38;100106.88;12173994;19;20018;-81
2022/04/11 06:36:42;;;;;;;6.70;3.90;;;;;;;3.48;92.48;100105.97;12175264;19;20010;-80
2022/04/11 07:21:20;;;;;;;6.93;2.20;;;;;;;6.67;75.37;100095.75;12247649;19;20067;-82
2022/04/11 07:25:28;;;;;;;5.20;2.72;;;;;;;6.98;73.55;100096.84;12192343;19;20011;-82
2022/04/11 07:29:32;;;;;;;7.07;2.20;;;;;;;7.29;73.43;100094.13;12240551;19;20012;-81
2022/04/11 07:38:19;;;;;;;3.90;2.08;;;;;;;7.91;70.56;100071.44;12228792;19;20018;-82
2022/04/11 07:47:41;;;;;;;4.63;2.20;;;;;;;8.42;63.56;100064.81;12197722;19;20015;-81
2022/04/11 08:01:16;;;;;;;6.47;2.00;;;;;;;9.33;62.45;100073.91;12235288;19;20013;-81
2022/04/11 08:05:30;;;;;;;6.53;2.22;;;;;;;9.54;61.66;100061.53;12243896;19;20059;-82
2022/04/11 08:09:51;;;;;;;5.82;2.17;;;;;;;9.74;60.63;100069.44;12229216;19;20037;-83
2022/04/11 08:14:38;;;;;;;4.15;2.42;;;;;;;10.02;58.74;100064.09;12239623;19;20010;-80
2022/04/11 08:19:18;;;;;;;4.00;1.88;;;;;;;10.23;56.53;100059.00;12229124;19;20105;-81
2022/04/11 08:23:28;;;;;;;3.95;2.38;;;;;;;10.47;57.81;100059.84;12252079;19;20019;-82
2022/04/11 08:28:24;;;;;;;5.22;2.33;;;;;;;10.56;53.74;100065.81;12222928;19;20026;-83
2022/04/11 08:32:25;;;;;;;3.13;1.90;;;;;;;10.88;55.78;100057.91;12025425;19;2004353;-81
2022/04/11 08:36:35;;;;;;;6.83;3.33;;;;;;;11.09;54.05;100050.88;12227093;19;20011;-82
2022/04/11 08:40:45;;;;;;;6.43;1.95;;;;;;;11.25;53.62;100047.31;12221459;19;20264;-81
2022/04/11 08:55:05;;;;;;;3.10;1.92;;;;;;;11.88;51.90;100047.28;12228673;19;20041;-83
2022/04/11 08:59:26;;;;;;;4.22;2.17;;;;;;;11.85;51.81;100045.84;12227163;19;20037;-82
2022/04/11 09:04:09;;;;;;;3.35;1.65;;;;;;;11.99;49.26;100049.94;12175717;19;20042;-82
2022/04/11 09:13:11;;;;;;;3.13;1.48;;;;;;;12.44;47.50;100035.09;12196883;19;20009;-83
2022/04/11 09:17:42;;;;;;;;;;;;;;;;;;;;;
2022/04/11 09:22:32;;;;;;;3.25;1.40;;;;;;;13.08;47.37;100012.28;12201609;19;19967;-82
2022/04/11 09:27:01;;;;;;;4.05;1.25;;;;;;;13.25;44.12;100003.91;12242617;19;20003;-82
2022/04/11 09:31:12;;;;;;;3.55;1.23;;;;;;;13.39;41.55;100005.16;12207370;19;20038;-82
2022/04/11 09:40:51;;;;;;;1.83;1.30;;;;;;;13.49;40.11;99990.56;12199602;19;20018;-83
2022/04/11 09:44:59;;;;;;;2.30;1.38;;;;;;;13.46;39.66;100002.16;12218123;19;20380;-81
2022/04/11 09:49:24;;;;;;;4.40;1.20;;;;;;;13.59;40.42;100006.41;12202664;19;20010;-82
2022/04/11 09:53:33;;;;;;;3.10;1.50;;;;;;;13.87;41.06;99996.94;12218109;19;20007;-81
2022/04/11 09:57:38;;;;;;;2.67;1.20;;;;;;;13.93;40.62;100001.41;12200821;19;20011;-80
2022/04/11 10:01:56;;;;;;;2.58;1.58;;;;;;;14.10;39.73;99996.53;12216431;19;20360;-80
2022/04/11 10:06:05;;;;;;;1.63;1.05;;;;;;;14.34;40.69;99990.53;12216986;19;20271;-80
2022/04/11 10:10:08;;;;;;;4.43;1.50;;;;;;;14.69;39.81;99980.69;12194586;19;20059;-82
2022/04/11 10:14:23;;;;;;;4.57;1.30;;;;;;;14.84;39.10;99977.97;12215446;19;20006;-82
2022/04/11 10:18:31;;;;;;;2.03;1.35;;;;;;;15.13;39.33;99971.91;12205897;19;20010;-80
2022/04/11 10:22:45;;;;;;;2.47;1.40;;;;;;;15.12;38.20;99962.75;12228002;19;20125;-81
2022/04/11 10:26:53;;;;;;;4.68;1.40;;;;;;;15.09;36.48;99954.16;12230723;19;20579;-82
2022/04/11 10:31:10;;;;;;;6.95;1.98;;;;;;;15.04;37.80;99947.47;12200336;19;20027;-84
2022/04/11 10:35:30;;;;;;;2.45;1.17;;;;;;;15.35;37.11;99946.66;12220401;19;20010;-83
2022/04/11 10:39:33;;;;;;;2.25;1.05;;;;;;;15.53;37.51;99957.22;12200697;19;20010;-82
2022/04/11 10:43:34;;;;;;;3.30;1.65;;;;;;;15.54;36.70;99942.22;12218670;19;20007;-83
2022/04/11 10:47:48;;;;;;;4.18;1.63;;;;;;;15.75;35.92;99937.47;12218556;19;20010;-83
2022/04/11 10:52:30;;;;;;;3.53;1.30;;;;;;;15.71;36.97;99937.22;12195002;19;20006;-82
2022/04/11 10:56:51;;;;;;;3.60;1.30;;;;;;;15.65;35.90;99926.38;12213110;19;20532;-81
2022/04/11 11:01:01;;;;;;;5.05;1.45;;;;;;;15.83;36.33;99922.19;12197407;19;20094;-82
2022/04/11 11:05:25;;;;;;;2.35;1.02;;;;;;;16.14;35.75;99922.91;12215160;19;20034;-82
2022/04/11 11:09:40;;;;;;;2.80;1.23;;;;;;;16.21;34.52;99926.22;12230752;19;20034;-80
2022/04/11 11:13:42;;;;;;;3.13;1.45;;;;;;;16.20;35.53;99919.00;12206003;19;20043;-83
2022/04/11 11:18:05;;;;;;;2.35;1.23;;;;;;;16.45;36.04;99909.72;12227563;19;20468;-81
2022/04/11 11:22:08;;;;;;;3.35;1.95;;;;;;;16.41;35.21;99889.97;12200891;19;20397;-81
2022/04/11 11:26:12;;;;;;;5.03;1.70;;;;;;;16.57;35.34;99885.16;12218086;19;20011;-82
2022/04/11 11:30:14;;;;;;;2.10;1.30;;;;;;;16.56;35.13;99885.44;12244327;19;20014;-81
2022/04/11 11:34:18;;;;;;;2.03;1.02;;;;;;;16.72;33.62;99872.28;12227436;19;20007;-81
2022/04/11 11:38:25;;;;;;;3.08;1.27;;;;;;;16.91;33.20;99875.22;12220057;19;20025;-83
2022/04/11 11:42:34;;;;;;;2.65;1.25;;;;;;;16.91;33.43;99864.06;12224651;19;20117;-82
2022/04/11 11:46:56;;;;;;;2.15;1.05;;;;;;;17.35;32.94;99868.72;12192986;19;20136;-81
2022/04/11 11:51:00;;;;;;;1.88;1.20;;;;;;;18.17;32.32;99866.69;12220491;19;20451;-83
2022/04/11 11:55:04;;;;;;;2.83;1.20;;;;;;;18.55;31.17;99866.69;12188778;19;20571;-82
2022/04/11 11:59:06;;;;;;;4.78;1.42;;;;;;;18.91;30.91;99866.19;12220054;19;20018;-81
2022/04/11 12:07:36;;;;;;;2.88;1.50;;;;;;;19.33;31.09;99858.75;12224860;19;20010;-86
2022/04/11 12:11:37;;;;;;;4.72;1.45;;;;;;;19.96;30.58;99846.13;12220756;19;20006;-82
2022/04/11 12:15:39;;;;;;;3.83;1.63;;;;;;;20.41;29.94;99827.50;12197026;19;20023;-82
2022/04/11 12:19:41;;;;;;;2.73;1.37;;;;;;;21.22;29.42;99825.84;12212641;19;20384;-80
2022/04/11 12:24:13;;;;;;;2.92;1.23;;;;;;;21.61;28.42;99823.09;12209690;19;20073;-81
2022/04/11 12:28:22;;;;;;;3.55;1.10;;;;;;;21.58;27.25;99809.72;12189720;19;20006;-81
2022/04/11 12:32:25;;;;;;;7.40;1.38;;;;;;;22.07;27.80;99807.75;12213003;19;20527;-82
2022/04/11 12:36:28;;;;;;;2.90;1.10;;;;;;;21.96;26.65;99800.78;12215301;19;20011;-83
2022/04/11 12:40:44;;;;;;;9.40;1.50;;;;;;;22.37;25.82;99793.09;12179989;19;20018;-80
2022/04/11 12:45:03;;;;;;;3.70;1.60;;;;;;;22.77;26.54;99795.75;12206312;19;20014;-80
2022/04/11 12:49:06;;;;;;;4.60;1.35;;;;;;;23.11;25.68;99787.31;12189085;19;20010;-83
2022/04/11 12:53:07;;;;;;;3.20;1.65;;;;;;;23.06;26.33;99781.88;12208997;19;20006;-82
2022/04/11 12:57:23;;;;;;;2.67;1.30;;;;;;;23.58;25.45;99769.59;12209022;19;20014;-82
2022/04/11 13:01:52;;;;;;;3.55;1.65;;;;;;;23.92;24.60;99759.38;12182160;19;20015;-83
2022/04/11 13:05:54;;;;;;;7.80;1.90;;;;;;;23.76;23.80;99759.13;12203520;19;20764;-82
2022/04/11 13:09:55;;;;;;;7.30;1.40;;;;;;;24.43;24.92;99757.38;12189287;19;20015;-84
2022/04/11 13:13:57;;;;;;;3.83;1.67;;;;;;;24.70;23.90;99758.78;12200724;19;20041;-82
2022/04/11 13:22:21;;;;;;;4.78;2.08;;;;;;;24.69;23.79;99743.03;12181610;19;20400;-84
2022/04/11 13:26:22;;;;;;;2.80;1.40;;;;;;;24.69;23.94;99737.41;12205908;19;20040;-83
2022/04/11 13:30:24;;;;;;;3.13;1.60;;;;;;;24.96;23.38;99734.00;12212447;19;20006;-83
2022/04/11 13:34:33;;;;;;;4.90;1.60;;;;;;;24.65;21.76;99733.63;12185154;19;20929;-86
2022/04/11 13:38:35;;;;;;;3.80;1.50;;;;;;;24.54;23.16;99722.81;12204519;19;20007;-79
2022/04/11 13:42:37;;;;;;;3.55;1.60;;;;;;;24.57;22.53;99712.84;12194671;19;20691;-83
2022/04/11 13:46:58;;;;;;;4.03;1.50;;;;;;;24.89;22.42;99707.53;12201657;19;20119;-83
2022/04/11 13:51:00;;;;;;;;;;;;;;;25.02;22.42;99704.41;12208764;19;20466;-84
2022/04/11 13:55:03;;;;;;;4.45;1.83;;;;;;;25.84;22.94;99706.34;12169493;19;19915;-83
2022/04/11 13:59:04;;;;;;;2.78;1.17;;;;;;;24.98;22.29;99702.63;12206320;19;20006;-83
2022/04/11 14:03:08;;;;;;;3.15;1.50;;;;;;;24.16;23.26;99688.34;12210825;19;20015;-81
2022/04/11 14:07:10;;;;;;;3.10;1.52;;;;;;;22.55;24.35;99679.66;12180625;19;20791;-84
2022/04/11 14:11:12;;;;;;;2.63;1.38;;;;;;;21.87;25.00;99678.50;12208704;19;20551;-84
2022/04/11 14:15:14;;;;;;;2.38;1.30;;;;;;;20.98;25.83;99666.50;12208170;19;20014;-84
2022/04/11 14:19:15;;;;;;;4.60;2.07;;;;;;;20.10;27.16;99667.06;12187042;19;20011;-82
2022/04/11 14:23:18;;;;;;;3.13;1.77;;;;;;;19.69;27.16;99652.09;12240567;19;20006;-82
2022/04/11 14:27:20;;;;;;;2.95;1.35;;;;;;;19.52;27.09;99641.53;12218787;19;20517;-82
2022/04/11 14:31:42;;;;;;;2.33;1.65;;;;;;;19.79;26.88;99631.47;12193721;19;20327;-83
2022/04/11 14:35:45;;;;;;;3.90;1.40;;;;;;;19.87;27.66;99629.88;12206987;19;20021;-83
2022/04/11 14:39:46;;;;;;;2.22;1.25;;;;;;;21.12;26.67;99622.41;12187058;19;20007;-80
2022/04/11 14:43:48;;;;;;;3.23;1.43;;;;;;;21.85;25.61;99615.13;12208152;19;20011;-80
2022/04/11 14:47:50;;;;;;;3.83;1.50;;;;;;;21.71;25.36;99619.22;12206366;19;20014;-82
2022/04/11 14:51:52;;;;;;;4.97;1.60;;;;;;;21.64;25.35;99616.94;12191346;19;20384;-83
2022/04/11 14:55:54;;;;;;;3.00;1.60;;;;;;;21.26;26.02;99620.28;12204791;19;20328;-80
2022/04/11 15:00:02;;;;;;;4.25;1.83;;;;;;;20.89;25.71;99610.47;12217886;19;20033;-82
2022/04/11 15:04:04;;;;;;;3.33;1.73;;;;;;;20.33;26.59;99606.34;12185910;19;20405;-81
2022/04/11 15:08:07;;;;;;;3.00;1.80;;;;;;;19.85;27.43;99604.22;12217278;19;20022;-83
2022/04/11 15:12:10;;;;;;;3.28;1.60;;;;;;;19.19;27.65;99610.13;12210397;19;20010;-82
2022/04/11 15:16:12;;;;;;;6.97;1.67;;;;;;;18.82;28.33;99600.00;12194980;19;20022;-82
2022/04/11 15:20:14;;;;;;;4.15;1.45;;;;;;;18.66;28.52;99591.09;12213311;19;20451;-80
2022/04/11 15:24:15;;;;;;;4.00;1.83;;;;;;;18.87;28.65;99585.94;12214300;19;20010;-81
2022/04/11 15:28:18;;;;;;;2.75;1.60;;;;;;;18.40;29.11;99585.97;12190380;19;20063;-83
2022/04/11 15:32:20;;;;;;;4.13;1.50;;;;;;;18.03;29.79;99588.91;12214477;19;20015;-82
2022/04/11 15:36:22;;;;;;;2.17;1.00;;;;;;;18.07;30.07;99581.56;12211070;19;20087;-81
2022/04/11 15:40:24;;;;;;;3.25;1.55;;;;;;;17.89;30.59;99577.69;12189528;19;20377;-82
2022/04/11 15:44:26;;;;;;;6.00;1.65;;;;;;;17.99;30.50;99583.94;12209330;19;20025;-82
2022/04/11 15:48:28;;;;;;;2.25;1.38;;;;;;;18.02;30.44;99578.84;12201086;19;20018;-82
2022/04/11 15:52:30;;;;;;;4.18;2.00;;;;;;;17.88;30.63;99573.25;12209587;19;20380;-81
2022/04/11 15:56:32;;;;;;;3.47;1.65;;;;;;;17.69;30.98;99567.66;12201759;19;20031;-81
2022/04/11 16:00:34;;;;;;;3.88;1.60;;;;;;;17.71;31.33;99560.66;12184018;19;20014;-79
2022/04/11 16:04:35;;;;;;;4.97;1.73;;;;;;;17.96;30.76;99561.38;12208075;19;20007;-82
2022/04/11 16:08:38;;;;;;;3.90;1.30;;;;;;;18.66;30.26;99555.63;12203612;19;20077;-80
2022/04/11 16:12:40;;;;;;;6.40;1.40;;;;;;;19.44;29.06;99552.84;12185554;19;20010;-81
2022/04/11 16:16:41;;;;;;;4.90;1.60;;;;;;;19.76;28.35;99557.44;12205458;19;20010;-81
2022/04/11 16:20:44;;;;;;;2.70;1.30;;;;;;;20.18;28.55;99557.22;12203450;19;20007;-81
2022/04/11 16:24:45;;;;;;;1.80;1.00;;;;;;;20.86;28.18;99552.28;12183938;19;20018;-82
2022/04/11 16:28:49;;;;;;;3.88;1.70;;;;;;;22.13;27.22;99535.38;12207639;19;20271;-80
2022/04/11 16:32:50;;;;;;;3.10;1.20;;;;;;;22.14;26.42;99526.63;12211139;19;20475;-81
2022/04/11 16:36:52;;;;;;;3.35;1.30;;;;;;;22.11;27.09;99520.88;12183264;19;20014;-83
2022/04/11 16:40:54;;;;;;;2.50;1.37;;;;;;;21.65;26.56;99525.22;12205207;19;20010;-84
2022/04/11 16:44:56;;;;;;;3.77;1.50;;;;;;;21.38;26.78;99530.00;12207440;19;20492;-85
2022/04/11 16:48:58;;;;;;;4.05;1.38;;;;;;;21.14;27.35;99536.84;12190081;19;20650;-84
2022/04/11 16:53:00;;;;;;;4.80;1.37;;;;;;;20.32;28.27;99534.75;12211047;19;20022;-82
2022/04/11 16:57:01;;;;;;;3.13;1.40;;;;;;;19.61;28.71;99526.22;12202198;19;20019;-83
2022/04/11 17:01:04;;;;;;;2.57;1.80;;;;;;;19.13;29.47;99525.63;12187995;19;20026;-84
2022/04/11 17:05:06;;;;;;;;;;;;;;;18.57;30.07;99514.81;12206530;19;20010;-83
2022/04/11 17:09:08;;;;;;;3.10;1.60;;;;;;;18.14;31.45;99521.47;12210388;19;19919;-83
2022/04/11 17:13:09;;;;;;;3.35;1.95;;;;;;;17.99;31.48;99527.31;12190356;19;20480;-84
2022/04/11 17:21:32;;;;;;;6.13;2.10;;;;;;;17.39;32.24;99536.34;12190498;19;20011;-82
2022/04/11 17:25:34;;;;;;;8.63;1.80;;;;;;;17.34;32.47;99528.09;12210142;19;20342;-83
2022/04/11 17:29:36;;;;;;;2.97;1.40;;;;;;;17.17;33.64;99527.81;12208958;19;20011;-84
2022/04/11 17:33:37;;;;;;;4.57;1.90;;;;;;;16.80;33.62;99527.44;12185238;19;20018;-84
2022/04/11 17:37:39;;;;;;;5.13;2.10;;;;;;;16.46;33.98;99524.78;12207973;19;20491;-82
2022/04/11 17:41:41;;;;;;;3.90;1.70;;;;;;;16.03;34.56;99532.16;12208738;19;20405;-82
2022/04/11 17:45:43;;;;;;;3.50;2.05;;;;;;;15.61;35.64;99537.22;12187013;19;20010;-82
2022/04/11 17:49:45;;;;;;;6.07;1.70;;;;;;;15.13;36.86;99547.28;12209381;19;20502;-82
2022/04/11 17:53:52;;;;;;;3.13;1.63;;;;;;;14.70;37.67;99549.72;12201090;19;20015;-82
2022/04/11 17:57:54;;;;;;;3.58;1.50;;;;;;;14.29;38.40;99555.34;12184887;19;20273;-81
2022/04/11 18:01:56;;;;;;;2.95;1.52;;;;;;;13.87;39.72;99554.59;12206437;19;20081;-83
2022/04/11 18:05:58;;;;;;;3.05;1.40;;;;;;;13.49;39.48;99550.41;12206426;19;20003;-83
2022/04/11 18:09:59;;;;;;;3.65;1.48;;;;;;;13.11;40.94;99552.53;12184088;19;20011;-83
2022/04/11 18:14:01;;;;;;;3.58;1.55;;;;;;;12.74;41.30;99559.06;12204760;19;20006;-80
2022/04/11 18:18:04;;;;;;;4.05;1.45;;;;;;;12.45;41.77;99566.09;12208516;19;20023;-81
2022/04/11 18:22:06;;;;;;;3.42;2.05;;;;;;;12.13;42.63;99571.72;12184082;19;20031;-82
2022/04/11 18:26:07;;;;;;;4.90;1.70;;;;;;;11.85;42.93;99559.91;12201243;19;20010;-81
2022/04/11 18:34:32;;;;;;;5.10;2.03;;;;;;;11.30;44.29;99556.38;12187507;19;20013;-81
2022/04/11 18:38:51;;;;;;;3.90;1.73;;;;;;;11.12;44.49;99559.50;12202763;19;20022;-82
2022/04/11 18:42:58;;;;;;;3.50;1.65;;;;;;;10.95;44.83;99565.94;12215802;19;20381;-81
2022/04/11 18:47:39;;;;;;;3.83;1.90;;;;;;;10.84;45.42;99566.06;12216877;19;20010;-81
2022/04/11 18:52:27;;;;;;;4.55;1.65;;;;;;;10.68;46.08;99554.88;12152586;19;20421;-83
2022/04/11 18:57:52;;;;;;;4.47;2.30;;;;;;;10.55;46.39;99565.44;12221126;19;20070;-82
2022/04/11 19:02:43;;;;;;;5.20;1.92;;;;;;;10.39;46.83;99565.22;12112104;19;2004547;-83
2022/04/11 19:07:35;;;;;;;4.00;2.00;;;;;;;10.28;47.01;99574.44;12210960;19;20017;-82
2022/04/11 19:12:29;;;;;;;5.38;1.83;;;;;;;10.20;47.68;99575.69;12212617;19;20011;-83
2022/04/11 19:32:32;;;;;;;7.73;2.90;;;;;;;9.88;48.63;99572.72;12219116;19;20023;-82
2022/04/11 19:36:35;;;;;;;3.38;2.10;;;;;;;9.81;49.64;99569.28;12201045;19;20014;-83
2022/04/11 19:45:20;;;;;;;6.43;2.20;;;;;;;9.77;49.36;99568.13;12197460;19;20081;-80
2022/04/11 19:55:49;;;;;;;105.80;47.92;;;;;;;9.70;50.36;99575.72;12232841;19;20382;-83
2022/04/11 20:11:16;;;;;;;;;;;;;;;9.54;50.87;99585.63;12231573;19;20098;-82
2022/04/11 20:16:51;;;;;;;5.47;2.97;;;;;;;9.52;50.86;99590.56;12218420;19;19924;-83
2022/04/11 20:22:13;;;;;;;6.97;4.40;;;;;;;9.48;51.30;99581.13;12219056;19;20094;-83
2022/04/11 20:26:47;;;;;;;5.85;2.88;;;;;;;9.42;51.95;99585.69;12109252;19;2004412;-81
2022/04/11 20:31:20;;;;;;;4.68;2.63;;;;;;;9.40;52.12;99582.38;12153745;19;20041;-82
2022/04/11 20:35:39;;;;;;;8.10;3.30;;;;;;;9.44;51.92;99586.28;12215539;19;20022;-82
2022/04/11 20:39:57;;;;;;;5.30;3.00;;;;;;;9.42;52.15;99580.19;12203116;19;20006;-81
2022/04/11 20:44:41;;;;;;;8.65;3.35;;;;;;;9.47;51.65;99577.53;12218552;19;20011;-81
2022/04/11 20:49:19;;;;;;;4.90;2.72;;;;;;;9.55;51.47;99584.56;12202059;19;20397;-82
2022/04/11 20:53:46;;;;;;;6.10;3.08;;;;;;;9.58;51.80;99587.66;12170072;19;20014;-83
2022/04/11 20:58:23;;;;;;;7.05;3.70;;;;;;;9.65;51.50;99572.88;12195931;19;20006;-82
2022/04/11 21:02:41;;;;;;;7.18;3.35;;;;;;;9.70;51.32;99571.06;12214960;19;20046;-82
2022/04/11 21:06:49;;;;;;;7.07;3.47;;;;;;;9.73;51.23;99573.31;12189101;19;20026;-81
2022/04/11 21:10:51;;;;;;;;;;;;;;;9.72;51.31;99571.63;12214438;19;20414;-81
2022/04/11 21:14:53;;;;;;;7.55;3.25;;;;;;;9.69;52.41;99574.03;12219331;19;19907;-79
2022/04/11 21:18:55;;;;;;;7.30;3.38;;;;;;;9.65;52.20;99568.22;12204235;19;20007;-81
2022/04/11 21:22:57;;;;;;;7.82;3.65;;;;;;;9.67;51.90;99565.22;12239570;19;20050;-80
2022/04/11 21:26:59;;;;;;;9.35;3.58;;;;;;;9.69;51.71;99565.78;12227281;19;20018;-81
2022/04/11 21:31:01;;;;;;;6.22;3.45;;;;;;;9.70;51.84;99571.06;12180031;19;20010;-81
2022/04/11 21:35:06;;;;;;;5.65;3.20;;;;;;;9.72;51.74;99568.88;12204533;19;20469;-81
2022/04/11 21:39:16;;;;;;;7.65;3.97;;;;;;;9.70;51.95;99567.47;12204587;19;20030;-81
2022/04/11 21:43:18;;;;;;;8.50;3.90;;;;;;;9.69;51.98;99560.28;12186252;19;20014;-80
2022/04/11 21:47:20;;;;;;;7.80;3.10;;;;;;;9.66;51.83;99558.88;12204377;19;20360;-81
2022/04/11 21:51:21;;;;;;;8.82;3.47;;;;;;;9.65;52.22;99556.38;12214435;19;20488;-81
2022/04/11 21:55:23;;;;;;;6.13;3.00;;;;;;;9.62;52.20;99557.72;12179728;19;20039;-82
2022/04/11 21:59:25;;;;;;;5.18;2.78;;;;;;;9.73;51.85;99569.72;12207142;19;20006;-81
2022/04/11 22:03:31;;;;;;;7.07;3.35;;;;;;;9.77;51.98;99555.19;12179545;19;20328;-79
2022/04/11 22:07:32;;;;;;;7.18;4.10;;;;;;;9.80;51.53;99559.38;12205178;19;20010;-81
2022/04/11 22:11:34;;;;;;;4.60;2.58;;;;;;;9.74;52.07;99560.38;12201392;19;20362;-81
2022/04/11 22:15:36;;;;;;;6.05;3.22;;;;;;;9.62;52.80;99562.38;12180263;19;20010;-82
2022/04/11 22:19:38;;;;;;;6.17;2.87;;;;;;;9.51;52.94;99562.19;12214599;19;20078;-82
2022/04/11 22:23:40;;;;;;;4.97;2.50;;;;;;;9.37;53.21;99566.38;12215296;19;20086;-83
2022/04/11 22:27:42;;;;;;;5.43;2.80;;;;;;;9.24;53.56;99552.91;12189194;19;20078;-82
2022/04/11 22:31:44;;;;;;;6.22;2.80;;;;;;;9.09;54.68;99559.81;12217769;19;20007;-82
2022/04/11 22:35:45;;;;;;;5.72;2.88;;;;;;;8.95;55.65;99563.09;12210436;19;20016;-81